Simpelveld, Netherlands
Current Conditions -  °F | °C
As of 9:50 AM on Wednesday 22 Oct 2014 (Local Time) from ETNG Reporting Station
Broken Clouds Broken Clouds  
Wind Chill: 38°   Ceiling: 9000
Heat Index: 45°   Visibility: 6mi
Dew Point: 43°   Wind: 14mph
Humidity: 93%   Direction: 260°W
Pressure: 30.06"   Gusts: NA
Location:  50.83°N, 5.98°E
Report Text: ETNG 220750Z 26012KT 9999 FEW015 BKN090 07/06 Q1018 TEMPO 5000 SHRA SCT015CB
Loading
Personal Weather Stations






























Interactive Weather Map
Tropical Storm Tracking
New forecast layout! Learn more

10-Day Weather Forecast

Advertisements
Track Severe Weather on mobile